Time;durP1;ratioP1;P1;durP2;ratioP2;P2;SDS_P1;SDS_P2;PMS_P1;PMS_P2;Temp;Humidity;BMP_temperature;BMP_pressure;BME280_temperature;BME280_humidity;BME280_pressure;Samples;Min_cycle;Max_cycle;Signal;HPM_P1;HPM_P2
2023/05/07 00:01:34;;;;;;;;;;;;;;;15.93;nan;100430.47;5030219;28;19967;-87
2023/05/07 00:03:59;;;;;;;;;;;;;;;15.87;nan;100437.38;5008297;28;19976;-85
2023/05/07 00:06:25;;;;;;;;;;;;;;;15.82;nan;100434.44;5024450;28;19960;-85
2023/05/07 00:08:51;;;;;;;;;;;;;;;15.72;nan;100441.91;5004306;28;19928;-87
2023/05/07 00:11:16;;;;;;;;;;;;;;;15.61;nan;100439.69;5005555;28;19921;-86
2023/05/07 00:13:41;;;;;;;;;;;;;;;15.59;nan;100436.38;4995924;28;19925;-86
2023/05/07 00:16:06;;;;;;;;;;;;;;;15.51;nan;100427.47;5000520;28;19925;-87
2023/05/07 00:18:32;;;;;;;;;;;;;;;15.48;nan;100427.03;5012891;28;19921;-87
2023/05/07 00:20:58;;;;;;;;;;;;;;;15.47;nan;100425.41;5012735;28;19932;-86
2023/05/07 00:23:23;;;;;;;;;;;;;;;15.46;nan;100427.22;5029783;28;19967;-86
2023/05/07 00:25:49;;;;;;;;;;;;;;;15.34;nan;100420.72;5030403;28;20589;-86
2023/05/07 00:28:15;;;;;;;;;;;;;;;15.20;nan;100413.56;5012220;28;19928;-86
2023/05/07 00:30:41;;;;;;;;;;;;;;;15.06;nan;100409.88;5029142;28;19972;-86
2023/05/07 00:33:06;;;;;;;;;;;;;;;15.05;nan;100414.41;5004099;28;19923;-87
2023/05/07 00:35:32;;;;;;;;;;;;;;;14.99;nan;100415.16;5016211;28;19917;-87
2023/05/07 00:37:57;;;;;;;;;;;;;;;14.93;nan;100409.72;5022183;28;20445;-86
2023/05/07 00:40:22;;;;;;;;;;;;;;;14.82;nan;100411.81;5029834;28;19951;-87
2023/05/07 00:42:48;;;;;;;;;;;;;;;14.76;nan;100411.72;5011614;28;20407;-86
2023/05/07 00:45:14;;;;;;;;;;;;;;;14.68;nan;100415.28;5012825;28;19960;-86
2023/05/07 00:47:42;;;;;;;;;;;;;;;14.56;nan;100417.56;5029542;28;19943;-86
2023/05/07 00:50:09;;;;;;;;;;;;;;;14.51;nan;100419.91;5007383;28;19921;-86
2023/05/07 00:52:34;;;;;;;;;;;;;;;14.55;nan;100415.09;5012160;28;19948;-87
2023/05/07 00:55:04;;;;;;;;;;;;;;;14.61;nan;100417.00;5030135;28;19921;-86
2023/05/07 00:57:29;;;;;;;;;;;;;;;14.63;nan;100409.66;5012262;28;19917;-85
2023/05/07 00:59:54;;;;;;;;;;;;;;;14.61;nan;100412.53;5029969;28;20008;-86
2023/05/07 01:02:19;;;;;;;;;;;;;;;14.56;nan;100409.59;5011550;28;19956;-85
2023/05/07 01:04:45;;;;;;;;;;;;;;;14.53;nan;100403.75;5000920;28;19944;-86
2023/05/07 01:07:10;;;;;;;;;;;;;;;14.47;nan;100400.00;4995731;28;19929;-87
2023/05/07 01:09:36;;;;;;;;;;;;;;;14.47;nan;100400.00;5007986;28;19991;-86
2023/05/07 01:12:02;;;;;;;;;;;;;;;14.51;nan;100395.13;5029325;28;19983;-85
2023/05/07 01:14:28;;;;;;;;;;;;;;;14.54;nan;100400.09;4992893;28;20557;-86
2023/05/07 01:16:53;;;;;;;;;;;;;;;14.58;nan;100396.91;4992879;28;19921;-86
2023/05/07 01:19:19;;;;;;;;;;;;;;;14.59;nan;100398.56;5027418;28;20388;-86
2023/05/07 01:21:48;;;;;;;;;;;;;;;14.57;nan;100392.59;5010223;28;20015;-86
2023/05/07 01:24:14;;;;;;;;;;;;;;;14.53;nan;100388.63;5013842;28;19979;-86
2023/05/07 01:26:40;;;;;;;;;;;;;;;14.53;nan;100385.13;5015910;28;20495;-85
2023/05/07 01:29:05;;;;;;;;;;;;;;;14.50;nan;100382.84;5033830;28;19928;-86
2023/05/07 01:31:31;;;;;;;;;;;;;;;14.46;nan;100382.38;5016000;28;20300;-86
2023/05/07 01:33:59;;;;;;;;;;;;;;;14.43;nan;100380.88;5032690;28;19917;-87
2023/05/07 01:36:26;;;;;;;;;;;;;;;14.42;nan;100375.78;5032966;28;19928;-87
2023/05/07 01:38:52;;;;;;;;;;;;;;;14.46;nan;100379.69;5015738;28;19921;-86
2023/05/07 01:41:18;;;;;;;;;;;;;;;14.44;nan;100371.91;5014979;28;19921;-86
2023/05/07 01:43:44;;;;;;;;;;;;;;;14.45;nan;100364.75;5015183;28;19932;-88
2023/05/07 01:46:10;;;;;;;;;;;;;;;14.46;nan;100369.06;5015437;28;19925;-87
2023/05/07 01:48:35;;;;;;;;;;;;;;;14.42;nan;100367.78;5028506;28;19980;-86
2023/05/07 01:51:01;;;;;;;;;;;;;;;14.40;nan;100372.47;5003240;28;19929;-86
2023/05/07 01:53:27;;;;;;;;;;;;;;;14.42;nan;100363.28;4998191;28;19921;-86
2023/05/07 01:55:52;;;;;;;;;;;;;;;14.49;nan;100367.88;5010889;28;19944;-87
2023/05/07 01:58:17;;;;;;;;;;;;;;;14.50;nan;100377.53;5014860;28;19921;-85
2023/05/07 02:00:43;;;;;;;;;;;;;;;14.54;nan;100377.00;5015749;28;20006;-87
2023/05/07 02:03:08;;;;;;;;;;;;;;;14.57;nan;100376.66;5014872;28;19917;-87
2023/05/07 02:05:33;;;;;;;;;;;;;;;14.55;nan;100385.81;5014929;28;19966;-86
2023/05/07 02:07:58;;;;;;;;;;;;;;;14.53;nan;100382.47;5015027;28;19944;-86
2023/05/07 02:10:23;;;;;;;;;;;;;;;14.50;nan;100381.00;5013155;28;20403;-86
2023/05/07 02:12:49;;;;;;;;;;;;;;;14.43;nan;100385.41;5008223;28;19921;-86
2023/05/07 02:15:14;;;;;;;;;;;;;;;14.42;nan;100381.09;5013369;28;19929;-86
2023/05/07 02:17:57;;;;;;;;;;;;;;;14.34;nan;100378.50;5014301;28;19925;-86
2023/05/07 02:20:22;;;;;;;;;;;;;;;14.27;nan;100383.69;4995676;28;19929;-86
2023/05/07 02:22:48;;;;;;;;;;;;;;;14.18;nan;100382.97;5032314;28;19921;-86
2023/05/07 02:25:13;;;;;;;;;;;;;;;14.15;nan;100390.44;5032035;28;20359;-86
2023/05/07 02:27:38;;;;;;;;;;;;;;;14.10;nan;100382.19;5012891;28;19967;-85
2023/05/07 02:30:03;;;;;;;;;;;;;;;14.01;nan;100384.06;5004300;28;20369;-86
2023/05/07 02:32:29;;;;;;;;;;;;;;;13.96;nan;100389.91;5013974;28;19929;-86
2023/05/07 02:34:54;;;;;;;;;;;;;;;14.07;nan;100386.03;5015169;28;19975;-86
2023/05/07 02:37:19;;;;;;;;;;;;;;;14.17;nan;100389.25;5032612;28;19948;-87
2023/05/07 02:39:44;;;;;;;;;;;;;;;14.26;nan;100383.91;5015075;28;19924;-86
2023/05/07 02:42:09;;;;;;;;;;;;;;;14.33;nan;100390.16;5014260;28;20000;-85
2023/05/07 02:44:35;;;;;;;;;;;;;;;14.37;nan;100396.75;5011347;28;19928;-87
2023/05/07 02:47:00;;;;;;;;;;;;;;;14.42;nan;100394.41;5014053;28;19929;-87
2023/05/07 02:49:26;;;;;;;;;;;;;;;14.47;nan;100393.81;4996385;28;19976;-85
2023/05/07 02:51:51;;;;;;;;;;;;;;;14.50;nan;100396.16;5006395;28;19928;-86
2023/05/07 02:54:17;;;;;;;;;;;;;;;14.57;nan;100387.28;5013256;28;19928;-88
2023/05/07 02:56:42;;;;;;;;;;;;;;;14.65;nan;100383.72;5032739;28;20023;-88
2023/05/07 02:59:07;;;;;;;;;;;;;;;14.64;nan;100388.22;5031942;28;20020;-87
2023/05/07 03:01:33;;;;;;;;;;;;;;;14.70;nan;100391.16;5007461;28;19922;-87
2023/05/07 03:03:58;;;;;;;;;;;;;;;14.73;nan;100382.78;4997997;28;19921;-85
2023/05/07 03:06:23;;;;;;;;;;;;;;;14.77;nan;100386.75;5013919;28;20387;-87
2023/05/07 03:08:48;;;;;;;;;;;;;;;14.73;nan;100394.28;5014027;28;19921;-88
2023/05/07 03:11:14;;;;;;;;;;;;;;;14.69;nan;100398.31;5032033;28;19925;-87
2023/05/07 03:13:39;;;;;;;;;;;;;;;14.62;nan;100394.72;5014245;28;20446;-85
2023/05/07 03:16:05;;;;;;;;;;;;;;;14.52;nan;100394.97;5001971;28;19960;-87
2023/05/07 03:18:30;;;;;;;;;;;;;;;14.45;nan;100394.03;5014495;28;19971;-88
2023/05/07 03:20:55;;;;;;;;;;;;;;;14.42;nan;100389.91;5014127;28;20289;-87
2023/05/07 03:23:20;;;;;;;;;;;;;;;14.40;nan;100391.09;5030908;28;19917;-87
2023/05/07 03:25:45;;;;;;;;;;;;;;;14.37;nan;100386.94;5014322;28;20373;-88
2023/05/07 03:28:11;;;;;;;;;;;;;;;14.34;nan;100384.63;5031137;28;19986;-86
2023/05/07 03:30:36;;;;;;;;;;;;;;;14.32;nan;100380.50;5017744;28;19925;-88
2023/05/07 03:33:01;;;;;;;;;;;;;;;14.31;nan;100369.03;5029115;28;20367;-87
2023/05/07 03:35:26;;;;;;;;;;;;;;;14.32;nan;100367.19;5014241;28;19972;-86
2023/05/07 03:37:51;;;;;;;;;;;;;;;14.33;nan;100371.53;5014355;28;19924;-86
2023/05/07 03:40:17;;;;;;;;;;;;;;;14.30;nan;100367.41;5013917;28;20405;-87
2023/05/07 03:42:42;;;;;;;;;;;;;;;14.25;nan;100364.44;5013675;28;19917;-84
2023/05/07 03:45:07;;;;;;;;;;;;;;;14.27;nan;100366.91;5019805;28;21616;-87
2023/05/07 03:47:33;;;;;;;;;;;;;;;14.28;nan;100373.88;5007774;28;20249;-86
2023/05/07 03:49:59;;;;;;;;;;;;;;;14.27;nan;100370.41;5024874;28;19918;-83
2023/05/07 03:52:25;;;;;;;;;;;;;;;14.27;nan;100369.56;4998743;28;19928;-86
2023/05/07 03:54:52;;;;;;;;;;;;;;;14.24;nan;100368.94;5013933;28;20484;-86
2023/05/07 03:57:17;;;;;;;;;;;;;;;14.25;nan;100375.06;5031491;28;19917;-85
2023/05/07 03:59:42;;;;;;;;;;;;;;;14.23;nan;100380.59;5011918;28;19944;-88
2023/05/07 04:02:08;;;;;;;;;;;;;;;14.24;nan;100382.22;5011527;28;19928;-86
2023/05/07 04:04:33;;;;;;;;;;;;;;;14.21;nan;100387.91;5028331;28;20407;-86
2023/05/07 04:06:59;;;;;;;;;;;;;;;14.18;nan;100385.63;5013690;28;20007;-86
2023/05/07 04:09:25;;;;;;;;;;;;;;;14.12;nan;100394.28;5030897;28;19974;-86
2023/05/07 04:11:50;;;;;;;;;;;;;;;14.03;nan;100400.66;5030925;28;20686;-86
2023/05/07 04:14:15;;;;;;;;;;;;;;;13.97;nan;100390.75;5012263;28;19917;-86
2023/05/07 04:16:40;;;;;;;;;;;;;;;13.94;nan;100393.75;5007231;28;19929;-87
2023/05/07 04:19:05;;;;;;;;;;;;;;;14.06;nan;100397.66;5020887;28;19968;-86
2023/05/07 04:21:31;;;;;;;;;;;;;;;14.14;nan;100396.78;5012422;28;20288;-86
2023/05/07 04:23:56;;;;;;;;;;;;;;;14.15;nan;100393.94;5012842;28;19921;-86
2023/05/07 04:26:21;;;;;;;;;;;;;;;14.23;nan;100399.19;5012162;28;20016;-86
2023/05/07 04:28:47;;;;;;;;;;;;;;;14.30;nan;100395.81;5013098;28;19944;-86
2023/05/07 04:31:12;;;;;;;;;;;;;;;14.38;nan;100401.88;5012802;28;19925;-86
2023/05/07 04:33:37;;;;;;;;;;;;;;;14.44;nan;100398.53;5012073;28;19925;-86
2023/05/07 04:36:03;;;;;;;;;;;;;;;14.49;nan;100403.31;5025366;28;20000;-86
2023/05/07 04:38:29;;;;;;;;;;;;;;;14.57;nan;100400.59;5030438;28;19921;-86
2023/05/07 04:40:55;;;;;;;;;;;;;;;14.63;nan;100402.53;5030750;28;19924;-85
2023/05/07 04:43:21;;;;;;;;;;;;;;;14.71;nan;100404.28;5009205;28;19925;-86
2023/05/07 04:45:53;;;;;;;;;;;;;;;14.76;nan;100404.56;5013206;28;19918;-86
2023/05/07 04:48:19;;;;;;;;;;;;;;;14.78;nan;100396.41;5007719;28;19924;-86
2023/05/07 04:50:46;;;;;;;;;;;;;;;14.81;nan;100404.03;5004330;28;19972;-85
2023/05/07 04:53:12;;;;;;;;;;;;;;;14.78;nan;100402.56;5010142;28;19918;-85
2023/05/07 04:55:37;;;;;;;;;;;;;;;14.78;nan;100404.41;5010544;28;19925;-85
2023/05/07 04:58:02;;;;;;;;;;;;;;;14.75;nan;100405.56;5009473;28;20597;-86
2023/05/07 05:00:27;;;;;;;;;;;;;;;14.79;nan;100411.34;4992487;28;19917;-85
2023/05/07 05:02:53;;;;;;;;;;;;;;;14.81;nan;100415.50;4992442;28;19948;-85
2023/05/07 05:05:18;;;;;;;;;;;;;;;14.84;nan;100414.28;4992607;28;19917;-85
2023/05/07 05:07:43;;;;;;;;;;;;;;;14.86;nan;100420.28;5009968;28;20330;-86
2023/05/07 05:10:09;;;;;;;;;;;;;;;14.98;nan;100420.66;4992276;28;19929;-85
2023/05/07 05:12:34;;;;;;;;;;;;;;;15.13;nan;100413.47;5009210;28;19929;-86
2023/05/07 05:14:59;;;;;;;;;;;;;;;15.27;nan;100412.63;4999554;28;19932;-86
2023/05/07 05:17:24;;;;;;;;;;;;;;;15.43;nan;100410.78;5002995;28;19955;-86
2023/05/07 05:19:50;;;;;;;;;;;;;;;15.56;nan;100415.44;4997153;28;19922;-85
2023/05/07 05:22:16;;;;;;;;;;;;;;;15.67;nan;100409.63;5005495;28;19921;-87
2023/05/07 05:24:41;;;;;;;;;;;;;;;15.76;nan;100411.22;4997376;28;19928;-86
2023/05/07 05:27:06;;;;;;;;;;;;;;;15.78;nan;100403.00;5029513;28;19949;-86
2023/05/07 05:29:31;;;;;;;;;;;;;;;15.90;nan;100413.00;5029675;28;19925;-86
2023/05/07 05:31:57;;;;;;;;;;;;;;;15.96;nan;100406.06;4996440;28;19922;-87
2023/05/07 05:34:22;;;;;;;;;;;;;;;16.07;nan;100410.09;4989796;28;19996;-86
2023/05/07 05:36:47;;;;;;;;;;;;;;;16.12;nan;100415.69;4992733;28;19921;-86
2023/05/07 05:39:12;;;;;;;;;;;;;;;16.24;nan;100413.31;5019032;28;19917;-86
2023/05/07 05:41:40;;;;;;;;;;;;;;;16.38;nan;100417.75;5012167;28;20014;-86
2023/05/07 05:44:05;;;;;;;;;;;;;;;16.51;nan;100419.69;4998785;28;19925;-85
2023/05/07 05:46:31;;;;;;;;;;;;;;;16.58;nan;100417.91;4981545;28;19917;-86
2023/05/07 05:48:58;;;;;;;;;;;;;;;16.61;nan;100422.03;4990587;28;19921;-86
2023/05/07 05:51:23;;;;;;;;;;;;;;;16.65;nan;100431.31;5008294;28;19927;-86
2023/05/07 05:53:49;;;;;;;;;;;;;;;16.69;nan;100430.72;5011882;28;19921;-85
2023/05/07 05:56:15;;;;;;;;;;;;;;;16.67;nan;100429.28;5030144;28;19921;-86
2023/05/07 05:58:40;;;;;;;;;;;;;;;16.65;nan;100437.47;5030000;28;19982;-86
2023/05/07 06:01:06;;;;;;;;;;;;;;;16.81;nan;100439.06;5029592;28;19961;-86
2023/05/07 06:03:32;;;;;;;;;;;;;;;16.96;nan;100442.44;4999519;28;19936;-86
2023/05/07 06:05:57;;;;;;;;;;;;;;;16.97;nan;100443.25;5026839;28;19961;-86
2023/05/07 06:08:22;;;;;;;;;;;;;;;17.09;nan;100435.53;5011311;28;20407;-86
2023/05/07 06:10:47;;;;;;;;;;;;;;;17.29;nan;100441.81;5032941;28;19921;-86
2023/05/07 06:13:13;;;;;;;;;;;;;;;17.39;nan;100447.63;5032187;28;19921;-87
2023/05/07 06:15:38;;;;;;;;;;;;;;;17.39;nan;100442.28;5015619;28;19956;-86
2023/05/07 06:18:03;;;;;;;;;;;;;;;17.59;nan;100444.19;5033191;28;19928;-87
2023/05/07 06:20:28;;;;;;;;;;;;;;;17.59;nan;100439.69;5016289;28;19952;-87
2023/05/07 06:22:53;;;;;;;;;;;;;;;17.70;nan;100438.28;5009926;28;20028;-87
2023/05/07 06:25:19;;;;;;;;;;;;;;;17.92;nan;100433.63;5007956;28;19925;-87
2023/05/07 06:27:44;;;;;;;;;;;;;;;18.09;nan;100433.25;5016423;28;19917;-87
2023/05/07 06:30:09;;;;;;;;;;;;;;;18.16;nan;100437.63;4998221;28;19921;-88
2023/05/07 06:32:35;;;;;;;;;;;;;;;18.01;nan;100434.28;5010037;28;19922;-88
2023/05/07 06:35:00;;;;;;;;;;;;;;;18.22;nan;100444.00;5002595;28;19925;-88
2023/05/07 06:37:25;;;;;;;;;;;;;;;18.27;nan;100448.75;5003672;28;19997;-87
2023/05/07 06:39:51;;;;;;;;;;;;;;;18.31;nan;100445.44;4994343;28;19921;-87
2023/05/07 06:42:16;;;;;;;;;;;;;;;18.49;nan;100449.38;4994945;28;19922;-87
2023/05/07 06:44:41;;;;;;;;;;;;;;;18.52;nan;100455.16;5032529;28;19927;-88
2023/05/07 06:47:06;;;;;;;;;;;;;;;18.56;nan;100455.53;5032345;28;20000;-87
2023/05/07 06:49:32;;;;;;;;;;;;;;;18.76;nan;100447.50;5000405;28;19924;-87
2023/05/07 06:51:57;;;;;;;;;;;;;;;18.97;nan;100446.47;5032429;28;19924;-87
2023/05/07 06:54:23;;;;;;;;;;;;;;;19.12;nan;100444.41;5013730;28;19985;-87
2023/05/07 06:56:48;;;;;;;;;;;;;;;19.31;nan;100446.19;5007027;28;19951;-86
2023/05/07 06:59:13;;;;;;;;;;;;;;;19.42;nan;100438.53;5004723;28;20548;-87
2023/05/07 07:01:38;;;;;;;;;;;;;;;19.58;nan;100446.09;5027927;28;19967;-87
2023/05/07 07:04:03;;;;;;;;;;;;;;;19.79;nan;100441.50;5027940;28;20025;-88
2023/05/07 07:06:31;;;;;;;;;;;;;;;20.00;nan;100437.63;5010038;28;19921;-87
2023/05/07 07:08:56;;;;;;;;;;;;;;;20.29;nan;100437.03;5012764;28;20458;-87
2023/05/07 07:11:21;;;;;;;;;;;;;;;20.43;nan;100436.94;4994751;28;20034;-88
2023/05/07 07:13:47;;;;;;;;;;;;;;;20.72;nan;100443.53;5003902;28;20020;-87
2023/05/07 07:16:12;;;;;;;;;;;;;;;21.08;nan;100447.34;5010217;28;19918;-88
2023/05/07 07:18:37;;;;;;;;;;;;;;;21.15;nan;100450.78;4998593;28;19921;-87
2023/05/07 07:21:02;;;;;;;;;;;;;;;21.28;nan;100449.78;5017685;28;19944;-88
2023/05/07 07:23:28;;;;;;;;;;;;;;;21.31;nan;100455.56;5022748;28;19956;-87
2023/05/07 07:25:53;;;;;;;;;;;;;;;21.07;nan;100454.59;5022582;28;20003;-85
2023/05/07 07:28:20;;;;;;;;;;;;;;;20.88;nan;100456.41;5014892;28;19936;-85
2023/05/07 07:30:45;;;;;;;;;;;;;;;20.83;nan;100461.63;4986965;28;20323;-85
2023/05/07 07:33:11;;;;;;;;;;;;;;;20.89;nan;100460.75;5003154;28;19975;-85
2023/05/07 07:35:36;;;;;;;;;;;;;;;21.07;nan;100453.75;5001474;28;19948;-85
2023/05/07 07:38:01;;;;;;;;;;;;;;;21.17;nan;100454.06;4993490;28;19921;-86
2023/05/07 07:40:26;;;;;;;;;;;;;;;21.15;nan;100451.59;5002662;28;19932;-87
2023/05/07 07:42:52;;;;;;;;;;;;;;;21.45;nan;100452.72;5007062;28;19925;-86
2023/05/07 07:45:18;;;;;;;;;;;;;;;21.68;nan;100454.72;5004346;28;19975;-86
2023/05/07 07:47:43;;;;;;;;;;;;;;;21.86;nan;100454.72;5013174;28;19917;-86
2023/05/07 07:50:08;;;;;;;;;;;;;;;22.12;nan;100458.91;4991118;28;19930;-86
2023/05/07 07:52:34;;;;;;;;;;;;;;;22.09;nan;100456.63;5004243;28;19929;-85
2023/05/07 07:54:59;;;;;;;;;;;;;;;21.86;nan;100468.16;5013829;28;19922;-86
2023/05/07 07:57:24;;;;;;;;;;;;;;;21.92;nan;100469.13;5022113;28;20377;-86
2023/05/07 07:59:50;;;;;;;;;;;;;;;21.80;nan;100472.56;5027227;28;19928;-85
2023/05/07 08:02:15;;;;;;;;;;;;;;;21.74;nan;100473.50;5007927;28;19928;-86
2023/05/07 08:04:41;;;;;;;;;;;;;;;21.77;nan;100470.34;5013025;28;19928;-86
2023/05/07 08:07:06;;;;;;;;;;;;;;;21.87;nan;100477.06;5013040;28;19917;-86
2023/05/07 08:09:32;;;;;;;;;;;;;;;21.82;nan;100470.47;5030766;28;19940;-86
2023/05/07 08:11:57;;;;;;;;;;;;;;;21.89;nan;100465.00;5030044;28;19947;-85
2023/05/07 08:14:22;;;;;;;;;;;;;;;21.76;nan;100463.31;5018334;28;19917;-85
2023/05/07 08:16:48;;;;;;;;;;;;;;;21.62;nan;100459.97;4993662;28;19918;-85
2023/05/07 08:19:13;;;;;;;;;;;;;;;21.58;nan;100463.34;5018275;28;19964;-85
2023/05/07 08:21:39;;;;;;;;;;;;;;;21.44;nan;100472.63;4997591;28;20301;-85
2023/05/07 08:24:04;;;;;;;;;;;;;;;21.25;nan;100474.47;5011310;28;19924;-84
2023/05/07 08:26:30;;;;;;;;;;;;;;;21.15;nan;100474.97;5012624;28;19921;-85
2023/05/07 08:28:55;;;;;;;;;;;;;;;21.12;nan;100473.56;4988220;28;19921;-84
2023/05/07 08:31:20;;;;;;;;;;;;;;;21.05;nan;100482.75;5012407;28;19925;-84
2023/05/07 08:33:46;;;;;;;;;;;;;;;20.99;nan;100485.25;5012580;28;20357;-85
2023/05/07 08:36:11;;;;;;;;;;;;;;;21.08;nan;100484.97;5030163;28;19921;-86
2023/05/07 08:38:36;;;;;;;;;;;;;;;21.18;nan;100482.59;5029687;28;19940;-85
2023/05/07 08:41:02;;;;;;;;;;;;;;;21.41;nan;100496.22;5024233;28;19965;-86
2023/05/07 08:43:27;;;;;;;;;;;;;;;21.33;nan;100493.81;5007095;28;19972;-86
2023/05/07 08:45:53;;;;;;;;;;;;;;;21.16;nan;100490.88;5023999;28;19921;-87
2023/05/07 08:48:21;;;;;;;;;;;;;;;21.19;nan;100495.00;5018769;28;20116;-86
2023/05/07 08:50:46;;;;;;;;;;;;;;;21.12;nan;100500.44;5007668;28;19925;-87
2023/05/07 08:53:12;;;;;;;;;;;;;;;21.10;nan;100499.03;5011827;28;20405;-86
2023/05/07 08:55:37;;;;;;;;;;;;;;;21.20;nan;100499.31;5024350;28;19929;-86
2023/05/07 08:58:03;;;;;;;;;;;;;;;21.34;nan;100502.69;5029541;28;20433;-87
2023/05/07 09:00:28;;;;;;;;;;;;;;;21.42;nan;100500.56;5009479;28;19921;-87
2023/05/07 09:02:53;;;;;;;;;;;;;;;21.54;nan;100503.31;5011022;28;19944;-87
2023/05/07 09:05:19;;;;;;;;;;;;;;;21.68;nan;100501.28;5007133;28;20031;-86
2023/05/07 09:07:45;;;;;;;;;;;;;;;21.83;nan;100496.38;5005500;28;19921;-86
2023/05/07 09:10:11;;;;;;;;;;;;;;;21.82;nan;100492.00;5004175;28;20493;-87
2023/05/07 09:12:36;;;;;;;;;;;;;;;21.92;nan;100496.84;5020849;28;19964;-87
2023/05/07 09:15:02;;;;;;;;;;;;;;;21.88;nan;100494.84;5005798;28;19928;-89
2023/05/07 09:17:28;;;;;;;;;;;;;;;21.67;nan;100493.47;5010289;28;19928;-87
2023/05/07 09:19:53;;;;;;;;;;;;;;;21.10;nan;100489.09;5024269;28;19918;-87
2023/05/07 09:22:18;;;;;;;;;;;;;;;20.77;nan;100489.38;5028030;28;19921;-87
2023/05/07 09:24:51;;;;;;;;;;;;;;;20.50;nan;100476.13;5024082;28;19944;-87
2023/05/07 09:27:17;;;;;;;;;;;;;;;20.42;nan;100471.03;5026150;28;19928;-86
2023/05/07 09:29:43;;;;;;;;;;;;;;;20.64;nan;100476.06;5027608;28;20020;-86
2023/05/07 09:32:08;;;;;;;;;;;;;;;20.73;nan;100474.75;5008303;28;19999;-86
2023/05/07 09:34:34;;;;;;;;;;;;;;;20.95;nan;100483.22;5005141;28;19922;-87
2023/05/07 09:37:02;;;;;;;;;;;;;;;21.28;nan;100477.50;5021180;28;20388;-87
2023/05/07 09:39:40;;;;;;;;;;;;;;;21.54;nan;100475.59;5002053;28;19929;-86
2023/05/07 09:42:05;;;;;;;;;;;;;;;21.74;nan;100476.19;5020154;28;19921;-86
2023/05/07 09:44:31;;;;;;;;;;;;;;;21.93;nan;100473.44;5007316;28;19929;-86
2023/05/07 09:46:59;;;;;;;;;;;;;;;22.18;nan;100474.13;5030973;28;19921;-86
2023/05/07 09:49:27;;;;;;;;;;;;;;;22.42;nan;100469.63;5007236;28;19967;-86
2023/05/07 09:51:53;;;;;;;;;;;;;;;22.68;nan;100468.38;5031223;28;19968;-86
2023/05/07 09:54:18;;;;;;;;;;;;;;;22.74;nan;100460.41;5026827;28;20376;-86
2023/05/07 09:56:48;;;;;;;;;;;;;;;22.82;nan;100457.38;5013167;28;19949;-86
2023/05/07 09:59:14;;;;;;;;;;;;;;;23.08;nan;100459.63;5012084;28;21377;-86
2023/05/07 10:01:41;;;;;;;;;;;;;;;23.22;nan;100462.09;5030302;28;19925;-86
2023/05/07 10:04:08;;;;;;;;;;;;;;;23.44;nan;100470.38;5026272;28;19921;-87
2023/05/07 10:06:34;;;;;;;;;;;;;;;23.94;nan;100467.88;5028078;28;19929;-86
2023/05/07 10:08:59;;;;;;;;;;;;;;;24.76;nan;100466.56;5013223;28;19932;-87
2023/05/07 10:11:24;;;;;;;;;;;;;;;25.51;nan;100458.16;5012796;28;19980;-86
2023/05/07 10:13:49;;;;;;;;;;;;;;;26.64;nan;100460.91;5013184;28;20380;-87
2023/05/07 10:16:15;;;;;;;;;;;;;;;28.33;nan;100458.88;5010038;28;19924;-87
2023/05/07 10:18:42;;;;;;;;;;;;;;;29.98;nan;100462.78;5014457;28;19947;-87
2023/05/07 10:21:10;;;;;;;;;;;;;;;31.58;nan;100456.63;5009214;28;19921;-87
2023/05/07 10:23:36;;;;;;;;;;;;;;;31.10;nan;100452.00;5003441;28;19960;-87
2023/05/07 10:26:03;;;;;;;;;;;;;;;31.74;nan;100458.84;5011095;28;19967;-86
2023/05/07 10:28:31;;;;;;;;;;;;;;;31.51;nan;100444.16;5005995;28;19984;-86
2023/05/07 10:31:15;;;;;;;;;;;;;;;32.75;nan;100443.84;5027094;28;20405;-87
2023/05/07 10:33:42;;;;;;;;;;;;;;;33.15;nan;100438.69;5025257;28;20332;-86
2023/05/07 10:36:07;;;;;;;;;;;;;;;34.00;nan;100440.97;5010203;28;19922;-86
2023/05/07 10:38:33;;;;;;;;;;;;;;;34.29;nan;100439.75;5032485;28;20498;-86
2023/05/07 10:40:58;;;;;;;;;;;;;;;33.92;nan;100430.72;5030232;28;19929;-86
2023/05/07 10:43:23;;;;;;;;;;;;;;;33.85;nan;100433.94;5007276;28;19983;-87
2023/05/07 10:46:08;;;;;;;;;;;;;;;34.75;nan;100438.56;5006005;28;19925;-87
2023/05/07 10:48:33;;;;;;;;;;;;;;;35.72;nan;100433.03;5009556;28;20004;-86
2023/05/07 10:51:17;;;;;;;;;;;;;;;34.89;nan;100429.06;5012533;28;20028;-87
2023/05/07 10:53:42;;;;;;;;;;;;;;;36.07;nan;100427.50;5010479;28;19932;-87
2023/05/07 10:56:16;;;;;;;;;;;;;;;36.58;nan;100425.81;5007057;28;19917;-87
2023/05/07 10:58:41;;;;;;;;;;;;;;;34.71;nan;100415.59;5004078;28;19976;-87
2023/05/07 11:01:07;;;;;;;;;;;;;;;34.48;nan;100413.69;5019863;28;19921;-87
2023/05/07 11:03:32;;;;;;;;;;;;;;;34.93;nan;100406.47;5010813;28;19971;-88
2023/05/07 11:06:11;;;;;;;;;;;;;;;35.67;nan;100414.72;5022921;28;20360;-87
2023/05/07 11:08:52;;;;;;;;;;;;;;;35.34;nan;100408.06;5027238;28;19924;-86
2023/05/07 11:11:17;;;;;;;;;;;;;;;34.95;nan;100409.72;5026286;28;20040;-84
2023/05/07 11:13:47;;;;;;;;;;;;;;;34.93;nan;100403.72;5021068;28;20049;-87
2023/05/07 11:16:19;;;;;;;;;;;;;;;35.83;nan;100406.00;5025370;28;19975;-86
2023/05/07 11:18:51;;;;;;;;;;;;;;;36.52;nan;100405.06;5022828;28;20004;-87
2023/05/07 11:21:33;;;;;;;;;;;;;;;35.91;nan;100399.66;5024339;28;20437;-88
2023/05/07 11:23:58;;;;;;;;;;;;;;;34.48;nan;100396.41;5026269;28;20020;-88
2023/05/07 11:26:24;;;;;;;;;;;;;;;34.47;nan;100403.03;5016147;28;20020;-85
2023/05/07 11:28:51;;;;;;;;;;;;;;;35.42;nan;100401.75;5012465;28;19922;-86
2023/05/07 11:31:20;;;;;;;;;;;;;;;35.78;nan;100395.13;5017898;28;20303;-85
2023/05/07 11:33:46;;;;;;;;;;;;;;;35.34;nan;100397.06;5018528;28;19921;-85
2023/05/07 11:36:12;;;;;;;;;;;;;;;33.89;nan;100404.72;5023215;28;19921;-86
2023/05/07 11:38:41;;;;;;;;;;;;;;;33.11;nan;100391.13;5020877;28;19943;-87
2023/05/07 11:41:07;;;;;;;;;;;;;;;31.73;nan;100383.41;5018405;28;20424;-89
2023/05/07 11:43:33;;;;;;;;;;;;;;;30.75;nan;100390.38;5016266;28;19929;-86
2023/05/07 11:46:05;;;;;;;;;;;;;;;30.04;nan;100392.69;5029656;28;20490;-85
2023/05/07 11:48:30;;;;;;;;;;;;;;;30.83;nan;100385.13;5016727;28;19931;-86
2023/05/07 11:51:03;;;;;;;;;;;;;;;31.42;nan;100284.69;5022275;28;19929;-85
2023/05/07 11:53:35;;;;;;;;;;;;;;;31.88;nan;100286.66;5010406;28;20428;-86
2023/05/07 11:56:05;;;;;;;;;;;;;;;32.05;nan;100296.22;5020389;28;19968;-85
2023/05/07 11:58:31;;;;;;;;;;;;;;;31.44;nan;100287.09;5021148;28;19978;-84
2023/05/07 12:00:56;;;;;;;;;;;;;;;31.52;nan;100287.25;5026834;28;19924;-85
2023/05/07 12:03:22;;;;;;;;;;;;;;;32.56;nan;100293.38;5019872;28;20028;-86
2023/05/07 12:05:47;;;;;;;;;;;;;;;32.52;nan;100288.81;5007882;28;19921;-86
2023/05/07 12:08:16;;;;;;;;;;;;;;;32.27;nan;100287.34;5012868;28;20019;-87
2023/05/07 12:10:41;;;;;;;;;;;;;;;32.31;nan;100294.63;5022326;28;20024;-86
2023/05/07 12:13:14;;;;;;;;;;;;;;;30.78;nan;100284.16;5026909;28;20020;-87
2023/05/07 12:15:39;;;;;;;;;;;;;;;30.35;nan;100284.13;5027247;28;19968;-85
2023/05/07 12:18:04;;;;;;;;;;;;;;;30.19;nan;100286.16;5022079;28;19961;-87
2023/05/07 12:20:30;;;;;;;;;;;;;;;29.83;nan;100280.25;5024294;28;19932;-87
2023/05/07 12:22:56;;;;;;;;;;;;;;;29.61;nan;100284.22;5023314;28;19921;-86
2023/05/07 12:25:21;;;;;;;;;;;;;;;29.13;nan;100281.28;5024067;28;19921;-85
2023/05/07 12:27:51;;;;;;;;;;;;;;;28.88;nan;100274.03;5024627;28;19932;-86
2023/05/07 12:30:17;;;;;;;;;;;;;;;29.08;nan;100272.31;5019164;28;19927;-86
2023/05/07 12:32:44;;;;;;;;;;;;;;;29.26;nan;100276.31;5026040;28;19929;-86
2023/05/07 12:35:09;;;;;;;;;;;;;;;28.46;nan;100267.16;5023073;28;19928;-86
2023/05/07 12:37:35;;;;;;;;;;;;;;;28.17;nan;100264.19;5020709;28;19921;-87
2023/05/07 12:40:11;;;;;;;;;;;;;;;28.68;nan;100269.53;5025584;28;20000;-88
2023/05/07 12:42:36;;;;;;;;;;;;;;;29.27;nan;100275.19;5028684;28;20377;-88
2023/05/07 12:45:11;;;;;;;;;;;;;;;29.61;nan;100269.78;5022216;28;19957;-87
2023/05/07 12:47:37;;;;;;;;;;;;;;;29.84;nan;100263.63;5024846;28;19921;-87
2023/05/07 12:50:04;;;;;;;;;;;;;;;30.15;nan;100260.59;5011475;28;19925;-88
2023/05/07 12:52:31;;;;;;;;;;;;;;;29.67;nan;100262.41;5019516;28;19961;-87